Time;durP1;ratioP1;P1;durP2;ratioP2;P2;SDS_P1;SDS_P2;PMS_P1;PMS_P2;Temp;Humidity;BMP_temperature;BMP_pressure;BME280_temperature;BME280_humidity;BME280_pressure;Samples;Min_cycle;Max_cycle;Signal;HPM_P1;HPM_P2
2022/01/27 00:00:38;;;;;;;47.80;20.67;;;;;;;;;;5099234;28;20238;-67
2022/01/27 00:03:17;;;;;;;46.55;20.77;;;;;;;;;;5100065;28;20245;-67
2022/01/27 00:05:48;;;;;;;52.15;21.63;;;;;;;;;;5099718;28;20265;-66
2022/01/27 00:08:18;;;;;;;45.85;21.25;;;;;;;;;;5098936;28;20207;-67
2022/01/27 00:10:52;;;;;;;45.13;20.98;;;;;;;;;;5099218;28;20262;-67
2022/01/27 00:13:24;;;;;;;52.88;21.80;;;;;;;;;;5099979;28;20207;-66
2022/01/27 00:15:59;;;;;;;42.28;21.25;;;;;;;;;;5099602;28;20192;-67
2022/01/27 00:18:25;;;;;;;48.50;21.85;;;;;;;;;;5098925;28;20219;-68
2022/01/27 00:20:52;;;;;;;51.25;21.55;;;;;;;;;;5099108;28;20211;-67
2022/01/27 00:23:18;;;;;;;47.15;21.23;;;;;;;;;;5099422;28;20208;-68
2022/01/27 00:25:46;;;;;;;43.17;21.02;;;;;;;;;;5099610;28;20215;-67
2022/01/27 00:28:13;;;;;;;47.53;20.90;;;;;;;;;;5098457;28;20263;-67
2022/01/27 00:30:40;;;;;;;48.10;22.10;;;;;;;;;;5098753;28;20235;-67
2022/01/27 00:33:07;;;;;;;42.30;21.50;;;;;;;;;;5099444;28;20217;-67
2022/01/27 00:35:34;;;;;;;47.83;21.52;;;;;;;;;;5099316;28;20536;-67
2022/01/27 00:38:01;;;;;;;49.38;22.20;;;;;;;;;;5098633;28;20207;-67
2022/01/27 00:40:27;;;;;;;49.13;22.45;;;;;;;;;;5099061;28;20230;-67
2022/01/27 00:42:55;;;;;;;48.67;21.83;;;;;;;;;;5099215;28;20426;-67
2022/01/27 00:45:23;;;;;;;43.17;20.83;;;;;;;;;;5099120;28;20208;-67
2022/01/27 00:47:49;;;;;;;48.38;22.80;;;;;;;;;;5098431;28;20542;-66
2022/01/27 00:50:18;;;;;;;43.95;21.35;;;;;;;;;;5098451;28;20212;-67
2022/01/27 00:52:48;;;;;;;52.33;21.70;;;;;;;;;;5097986;28;20206;-67
2022/01/27 00:55:15;;;;;;;47.88;22.17;;;;;;;;;;5098980;28;20287;-67
2022/01/27 00:57:59;;;;;;;49.17;21.35;;;;;;;;;;5098427;28;20559;-67
2022/01/27 01:00:32;;;;;;;48.53;22.25;;;;;;;;;;5078355;28;20262;-67
2022/01/27 01:03:03;;;;;;;50.67;21.42;;;;;;;;;;5078441;28;20204;-67
2022/01/27 01:05:45;;;;;;;49.53;22.33;;;;;;;;;;5078650;28;20582;-67
2022/01/27 01:08:50;;;;;;;51.28;22.85;;;;;;;;;;5079900;28;20418;-67
2022/01/27 01:11:27;;;;;;;53.17;22.60;;;;;;;;;;5098282;28;20474;-67
2022/01/27 01:14:24;;;;;;;56.17;23.08;;;;;;;;;;5098626;28;20203;-66
2022/01/27 01:16:59;;;;;;;48.10;21.80;;;;;;;;;;5086503;28;20213;-67
2022/01/27 01:19:37;;;;;;;48.45;22.80;;;;;;;;;;5097560;28;20249;-67
2022/01/27 01:29:24;;;;;;;46.08;21.63;;;;;;;;;;5098613;28;20235;-67
2022/01/27 01:30:35;;;;;;;47.85;22.17;;;;;;;;;;5097643;28;20306;-66
2022/01/27 01:33:05;;;;;;;42.28;21.27;;;;;;;;;;5098383;28;20207;-67
2022/01/27 01:35:47;;;;;;;51.97;22.23;;;;;;;;;;5098507;28;20208;-67
2022/01/27 01:38:13;;;;;;;46.47;21.35;;;;;;;;;;5097317;28;20211;-67
2022/01/27 01:40:40;;;;;;;44.83;22.00;;;;;;;;;;5097743;28;20214;-67
2022/01/27 01:43:06;;;;;;;46.30;21.83;;;;;;;;;;5097824;28;20211;-67
2022/01/27 01:45:34;;;;;;;48.70;22.60;;;;;;;;;;5098025;28;20240;-67
2022/01/27 01:48:01;;;;;;;41.72;21.05;;;;;;;;;;5097557;28;20200;-67
2022/01/27 01:50:28;;;;;;;47.70;22.40;;;;;;;;;;5096863;28;20527;-67
2022/01/27 01:52:55;;;;;;;49.72;23.08;;;;;;;;;;5097739;28;20208;-67
2022/01/27 01:55:21;;;;;;;44.40;21.33;;;;;;;;;;5097822;28;20549;-67
2022/01/27 01:57:50;;;;;;;48.22;22.45;;;;;;;;;;5097535;28;20207;-67
2022/01/27 02:00:17;;;;;;;46.92;22.88;;;;;;;;;;5076963;28;20263;-67
2022/01/27 02:02:43;;;;;;;47.42;22.58;;;;;;;;;;5077159;28;20205;-67
2022/01/27 02:05:10;;;;;;;50.05;23.48;;;;;;;;;;5076564;28;20227;-67
2022/01/27 02:07:50;;;;;;;52.17;23.80;;;;;;;;;;5076772;28;20373;-67
2022/01/27 02:10:31;;;;;;;48.60;22.95;;;;;;;;;;5096271;28;20416;-67
2022/01/27 02:18:21;;;;;;;50.60;23.08;;;;;;;;;;5095810;28;20203;-67
2022/01/27 02:20:50;;;;;;;51.17;23.13;;;;;;;;;;5096890;28;20537;-67
2022/01/27 02:23:16;;;;;;;61.08;25.90;;;;;;;;;;5096854;28;20217;-67
2022/01/27 02:25:42;;;;;;;53.45;24.45;;;;;;;;;;5097134;28;20200;-67
2022/01/27 02:28:09;;;;;;;52.17;23.90;;;;;;;;;;5089204;28;20209;-67
2022/01/27 02:30:35;;;;;;;47.60;23.23;;;;;;;;;;5076571;28;20366;-67
2022/01/27 02:33:02;;;;;;;53.38;23.27;;;;;;;;;;5076872;28;20237;-67
2022/01/27 02:35:29;;;;;;;51.10;24.13;;;;;;;;;;5095523;28;20260;-67
2022/01/27 02:37:57;;;;;;;52.67;23.80;;;;;;;;;;5096381;28;20208;-67
2022/01/27 02:40:29;;;;;;;57.95;24.60;;;;;;;;;;5096178;28;20229;-67
2022/01/27 02:42:55;;;;;;;56.08;23.60;;;;;;;;;;5096681;28;20207;-67
2022/01/27 02:45:23;;;;;;;53.35;23.40;;;;;;;;;;5097010;28;20284;-66
2022/01/27 02:47:49;;;;;;;54.03;24.80;;;;;;;;;;5096795;28;20215;-67
2022/01/27 02:50:16;;;;;;;55.60;24.33;;;;;;;;;;5096311;28;20220;-67
2022/01/27 02:52:42;;;;;;;55.85;24.95;;;;;;;;;;5091215;28;20215;-67
2022/01/27 02:55:11;;;;;;;58.45;23.65;;;;;;;;;;5096145;28;20470;-67
2022/01/27 02:57:37;;;;;;;58.00;24.92;;;;;;;;;;5088739;28;20404;-67
2022/01/27 03:00:05;;;;;;;55.88;24.60;;;;;;;;;;5076019;28;20431;-67
2022/01/27 03:02:32;;;;;;;57.08;23.95;;;;;;;;;;5076100;28;20200;-67
2022/01/27 03:04:59;;;;;;;51.28;25.42;;;;;;;;;;5090809;28;20235;-67
2022/01/27 03:07:25;;;;;;;53.67;23.80;;;;;;;;;;5096019;28;20402;-67
2022/01/27 03:09:54;;;;;;;54.65;23.85;;;;;;;;;;5095681;28;20204;-67
2022/01/27 03:12:24;;;;;;;50.38;24.27;;;;;;;;;;5096448;28;20269;-67
2022/01/27 03:14:51;;;;;;;52.88;23.90;;;;;;;;;;5095600;28;20290;-67
2022/01/27 03:17:17;;;;;;;55.38;24.73;;;;;;;;;;5095876;28;20208;-67
2022/01/27 03:19:44;;;;;;;57.15;25.38;;;;;;;;;;5095838;28;20241;-67
2022/01/27 03:22:10;;;;;;;52.70;25.42;;;;;;;;;;5096329;28;20253;-67
2022/01/27 03:24:37;;;;;;;54.88;26.38;;;;;;;;;;5097001;28;20411;-67
2022/01/27 03:27:12;;;;;;;51.75;25.02;;;;;;;;;;5097157;28;20412;-67
2022/01/27 03:29:40;;;;;;;56.40;24.52;;;;;;;;;;5096150;28;20271;-67
2022/01/27 03:32:07;;;;;;;57.92;25.55;;;;;;;;;;5096756;28;20204;-67
2022/01/27 03:34:33;;;;;;;56.13;24.23;;;;;;;;;;5096573;28;20839;-67
2022/01/27 03:36:59;;;;;;;51.85;23.85;;;;;;;;;;5096693;28;20511;-67
2022/01/27 03:39:27;;;;;;;49.25;23.73;;;;;;;;;;5096280;28;20238;-67
2022/01/27 03:41:55;;;;;;;50.45;23.20;;;;;;;;;;5096816;28;20511;-67
2022/01/27 03:44:22;;;;;;;52.55;23.38;;;;;;;;;;5096641;28;20538;-67
2022/01/27 03:46:52;;;;;;;51.38;24.15;;;;;;;;;;5096781;28;20631;-67
2022/01/27 03:49:19;;;;;;;56.72;25.02;;;;;;;;;;5096378;28;20414;-67
2022/01/27 03:51:46;;;;;;;47.35;23.70;;;;;;;;;;5096644;28;20208;-67
2022/01/27 03:54:12;;;;;;;47.92;24.08;;;;;;;;;;5096436;28;20226;-67
2022/01/27 03:56:38;;;;;;;50.08;23.98;;;;;;;;;;5096736;28;20208;-67
2022/01/27 03:59:05;;;;;;;45.58;21.98;;;;;;;;;;5096157;28;20214;-67
2022/01/27 04:01:32;;;;;;;50.47;23.77;;;;;;;;;;5096478;28;20208;-67
2022/01/27 04:04:01;;;;;;;46.38;22.00;;;;;;;;;;5096575;28;20204;-67
2022/01/27 04:06:33;;;;;;;50.42;23.40;;;;;;;;;;5096401;28;20231;-67
2022/01/27 04:09:00;;;;;;;46.65;22.10;;;;;;;;;;5096255;28;20208;-67
2022/01/27 04:11:27;;;;;;;47.60;22.92;;;;;;;;;;5096556;28;20211;-67
2022/01/27 04:13:53;;;;;;;44.70;22.70;;;;;;;;;;5096389;28;21245;-67
2022/01/27 04:16:20;;;;;;;50.58;23.73;;;;;;;;;;5096484;28;20214;-67
2022/01/27 04:18:46;;;;;;;54.67;24.83;;;;;;;;;;5096146;28;20207;-67
2022/01/27 04:21:15;;;;;;;49.58;24.63;;;;;;;;;;5096087;28;20222;-67
2022/01/27 04:23:41;;;;;;;48.80;23.95;;;;;;;;;;5095847;28;20208;-67
2022/01/27 04:26:08;;;;;;;46.55;23.85;;;;;;;;;;5096342;28;20208;-67
2022/01/27 04:28:37;;;;;;;50.13;24.98;;;;;;;;;;5096726;28;20238;-67
2022/01/27 04:31:06;;;;;;;49.42;22.85;;;;;;;;;;5099441;28;20566;-67
2022/01/27 04:33:34;;;;;;;49.80;26.23;;;;;;;;;;5100010;28;20214;-67
2022/01/27 04:36:06;;;;;;;79.05;41.38;;;;;;;;;;5100089;28;20515;-67
2022/01/27 04:38:39;;;;;;;47.00;26.77;;;;;;;;;;5109134;28;20218;-66
2022/01/27 04:41:12;;;;;;;52.22;28.92;;;;;;;;;;5099785;28;20577;-66
2022/01/27 04:43:44;;;;;;;50.78;27.80;;;;;;;;;;5099657;28;20218;-67
2022/01/27 04:46:22;;;;;;;46.17;26.67;;;;;;;;;;5099461;28;20211;-67
2022/01/27 04:48:52;;;;;;;44.80;25.33;;;;;;;;;;5098918;28;20245;-67
2022/01/27 04:51:21;;;;;;;44.47;26.08;;;;;;;;;;5099494;28;20447;-67
2022/01/27 04:53:54;;;;;;;45.92;27.13;;;;;;;;;;5099241;28;20253;-67
2022/01/27 04:56:22;;;;;;;48.30;28.33;;;;;;;;;;5099441;28;20208;-66
2022/01/27 04:58:52;;;;;;;50.00;28.05;;;;;;;;;;5098915;28;20208;-66
2022/01/27 05:01:23;;;;;;;47.45;26.40;;;;;;;;;;5099011;28;20231;-67
2022/01/27 05:03:55;;;;;;;47.13;26.77;;;;;;;;;;5099444;28;20235;-67
2022/01/27 05:06:21;;;;;;;46.97;25.60;;;;;;;;;;5099341;28;20430;-67
2022/01/27 05:08:49;;;;;;;45.20;26.25;;;;;;;;;;5098972;28;20503;-67
2022/01/27 05:11:22;;;;;;;46.75;26.80;;;;;;;;;;5099671;28;20210;-67
2022/01/27 05:13:53;;;;;;;45.33;26.60;;;;;;;;;;5099303;28;20204;-67
2022/01/27 05:16:20;;;;;;;50.30;26.92;;;;;;;;;;5099133;28;20214;-67
2022/01/27 05:18:46;;;;;;;48.53;28.00;;;;;;;;;;5098837;28;20207;-66
2022/01/27 05:21:13;;;;;;;46.47;27.25;;;;;;;;;;5098864;28;20445;-67
2022/01/27 05:23:39;;;;;;;46.83;26.88;;;;;;;;;;5099136;28;20237;-67
2022/01/27 05:26:07;;;;;;;45.15;27.52;;;;;;;;;;5098962;28;20215;-66
2022/01/27 05:28:33;;;;;;;48.40;27.17;;;;;;;;;;5088402;28;20424;-67
2022/01/27 05:31:01;;;;;;;49.80;26.65;;;;;;;;;;5098693;28;20518;-67
2022/01/27 05:33:28;;;;;;;49.05;26.83;;;;;;;;;;5099033;28;20208;-67
2022/01/27 05:35:54;;;;;;;47.58;27.85;;;;;;;;;;5098582;28;20476;-66
2022/01/27 05:38:21;;;;;;;56.33;29.25;;;;;;;;;;5098356;28;20376;-66
2022/01/27 05:40:47;;;;;;;50.25;29.92;;;;;;;;;;5098317;28;20223;-67
2022/01/27 05:43:15;;;;;;;54.22;29.90;;;;;;;;;;5098606;28;20463;-66
2022/01/27 05:45:42;;;;;;;56.83;31.67;;;;;;;;;;5099292;28;20204;-67
2022/01/27 05:48:08;;;;;;;54.38;29.15;;;;;;;;;;5098432;28;20209;-67
2022/01/27 05:50:35;;;;;;;50.17;28.20;;;;;;;;;;5098065;28;20208;-67
2022/01/27 05:53:01;;;;;;;49.85;26.98;;;;;;;;;;5098318;28;20245;-66
2022/01/27 05:55:28;;;;;;;47.05;27.52;;;;;;;;;;5098577;28;20234;-66
2022/01/27 05:57:54;;;;;;;46.92;26.58;;;;;;;;;;5098503;28;20581;-66
2022/01/27 06:00:22;;;;;;;53.03;27.98;;;;;;;;;;5097766;28;20227;-66
2022/01/27 06:02:48;;;;;;;49.05;26.48;;;;;;;;;;5098643;28;20402;-66
2022/01/27 06:05:15;;;;;;;53.85;27.05;;;;;;;;;;5097972;28;20239;-66
2022/01/27 06:07:41;;;;;;;48.30;26.15;;;;;;;;;;5098260;28;20207;-66
2022/01/27 06:10:08;;;;;;;46.53;25.50;;;;;;;;;;5097451;28;20204;-67
2022/01/27 06:12:35;;;;;;;48.63;26.40;;;;;;;;;;5098028;28;20544;-67
2022/01/27 06:15:01;;;;;;;47.45;27.13;;;;;;;;;;5098078;28;20215;-67
2022/01/27 06:17:29;;;;;;;47.83;27.30;;;;;;;;;;5097928;28;20222;-67
2022/01/27 06:19:57;;;;;;;44.88;26.20;;;;;;;;;;5097690;28;20230;-67
2022/01/27 06:22:24;;;;;;;48.90;27.08;;;;;;;;;;5097881;28;20250;-66
2022/01/27 06:24:50;;;;;;;44.58;25.95;;;;;;;;;;5097974;28;20214;-66
2022/01/27 06:27:16;;;;;;;43.13;25.88;;;;;;;;;;5097526;28;20208;-66
2022/01/27 06:29:43;;;;;;;49.08;27.55;;;;;;;;;;5097149;28;20219;-66
2022/01/27 06:32:09;;;;;;;51.38;28.23;;;;;;;;;;5098062;28;20212;-66
2022/01/27 06:34:37;;;;;;;45.97;25.95;;;;;;;;;;5097410;28;20222;-66
2022/01/27 06:37:04;;;;;;;69.40;38.15;;;;;;;;;;5097341;28;20208;-66
2022/01/27 06:39:30;;;;;;;48.33;27.55;;;;;;;;;;5096828;28;20492;-66
2022/01/27 06:41:57;;;;;;;46.55;27.38;;;;;;;;;;5097052;28;20234;-67
2022/01/27 06:44:23;;;;;;;50.40;27.02;;;;;;;;;;5097340;28;20534;-67
2022/01/27 06:46:49;;;;;;;89.68;45.00;;;;;;;;;;5097023;28;20199;-67
2022/01/27 06:49:17;;;;;;;54.45;28.85;;;;;;;;;;5096573;28;20387;-67
2022/01/27 06:51:45;;;;;;;72.15;37.60;;;;;;;;;;5097136;28;20211;-67
2022/01/27 06:54:12;;;;;;;59.50;29.63;;;;;;;;;;5097308;28;20309;-67
2022/01/27 06:56:38;;;;;;;54.83;26.20;;;;;;;;;;5097334;28;20207;-67
2022/01/27 06:59:05;;;;;;;40.20;24.60;;;;;;;;;;5096896;28;20207;-67
2022/01/27 07:01:31;;;;;;;57.40;31.95;;;;;;;;;;5096726;28;20253;-67
2022/01/27 07:03:58;;;;;;;41.88;25.27;;;;;;;;;;5096955;28;20411;-67
2022/01/27 07:06:24;;;;;;;48.47;27.05;;;;;;;;;;5096734;28;20227;-67
2022/01/27 07:08:52;;;;;;;40.50;25.00;;;;;;;;;;5096873;28;20223;-66
2022/01/27 07:11:18;;;;;;;48.80;26.42;;;;;;;;;;5096933;28;20488;-59
2022/01/27 07:13:45;;;;;;;44.83;24.85;;;;;;;;;;5097249;28;20207;-59
2022/01/27 07:16:11;;;;;;;45.97;25.15;;;;;;;;;;5097026;28;20207;-58
2022/01/27 07:18:38;;;;;;;43.20;25.27;;;;;;;;;;5096401;28;20248;-58
2022/01/27 07:21:04;;;;;;;40.88;24.23;;;;;;;;;;5099335;28;20290;-58
2022/01/27 07:23:31;;;;;;;41.13;21.48;;;;;;;;;;5097702;28;20211;-58
2022/01/27 07:25:58;;;;;;;48.20;24.83;;;;;;;;;;5097289;28;20411;-59
2022/01/27 07:28:25;;;;;;;41.03;23.73;;;;;;;;;;5097030;28;20207;-60
2022/01/27 07:30:51;;;;;;;36.17;21.23;;;;;;;;;;5097083;28;20245;-60
2022/01/27 07:33:18;;;;;;;39.92;22.08;;;;;;;;;;5097108;28;20199;-59
2022/01/27 07:35:44;;;;;;;40.80;22.98;;;;;;;;;;5097158;28;20199;-60
2022/01/27 07:38:11;;;;;;;40.55;22.10;;;;;;;;;;5096868;28;20200;-58
2022/01/27 07:40:37;;;;;;;42.00;22.25;;;;;;;;;;5096380;28;20231;-59
2022/01/27 07:43:05;;;;;;;40.70;22.48;;;;;;;;;;5094076;28;20204;-59
2022/01/27 07:45:31;;;;;;;39.08;22.40;;;;;;;;;;5096640;28;20211;-59
2022/01/27 07:47:58;;;;;;;37.65;20.95;;;;;;;;;;5096124;28;20515;-59
2022/01/27 07:50:28;;;;;;;35.17;20.35;;;;;;;;;;5096433;28;20245;-59
2022/01/27 07:52:55;;;;;;;34.33;20.10;;;;;;;;;;5095505;28;20227;-59
2022/01/27 07:55:21;;;;;;;33.78;19.75;;;;;;;;;;5096493;28;20207;-59
2022/01/27 07:57:48;;;;;;;34.10;19.08;;;;;;;;;;5096480;28;20207;-59
2022/01/27 08:00:16;;;;;;;38.33;19.70;;;;;;;;;;5095711;28;20214;-60
2022/01/27 08:02:43;;;;;;;33.33;19.50;;;;;;;;;;5100667;28;20272;-58
2022/01/27 08:05:10;;;;;;;37.67;20.60;;;;;;;;;;5100685;28;20230;-58
2022/01/27 08:07:36;;;;;;;33.92;19.35;;;;;;;;;;5104884;28;20202;-59
2022/01/27 08:10:03;;;;;;;41.65;21.55;;;;;;;;;;5120438;28;20207;-57
2022/01/27 08:12:29;;;;;;;41.08;21.10;;;;;;;;;;5108652;28;20208;-60
2022/01/27 08:14:56;;;;;;;44.53;23.58;;;;;;;;;;5100198;28;20208;-59
2022/01/27 08:17:23;;;;;;;44.97;23.50;;;;;;;;;;5099894;28;20215;-57
2022/01/27 08:19:50;;;;;;;88.97;26.02;;;;;;;;;;5100143;28;20211;-58
2022/01/27 08:22:16;;;;;;;54.88;22.20;;;;;;;;;;5099842;28;20246;-59
2022/01/27 08:24:43;;;;;;;44.85;23.13;;;;;;;;;;5100372;28;20265;-57
2022/01/27 08:27:12;;;;;;;46.05;22.95;;;;;;;;;;5099862;28;20550;-58
2022/01/27 08:29:43;;;;;;;44.70;22.02;;;;;;;;;;5098599;28;20542;-59
2022/01/27 08:32:16;;;;;;;45.33;22.27;;;;;;;;;;5100313;28;20271;-60
2022/01/27 08:34:44;;;;;;;50.63;22.73;;;;;;;;;;5099919;28;20273;-58
2022/01/27 08:37:11;;;;;;;53.70;23.77;;;;;;;;;;5100016;28;20212;-59
2022/01/27 08:39:38;;;;;;;45.70;23.08;;;;;;;;;;5099691;28;20511;-58
2022/01/27 08:42:05;;;;;;;43.95;22.25;;;;;;;;;;5099383;28;20224;-59
2022/01/27 08:44:32;;;;;;;40.58;20.58;;;;;;;;;;5099550;28;20368;-58
2022/01/27 08:46:58;;;;;;;39.90;20.88;;;;;;;;;;5099862;28;20208;-60
2022/01/27 08:49:26;;;;;;;49.97;20.60;;;;;;;;;;5099671;28;20370;-59
2022/01/27 08:51:54;;;;;;;47.38;20.10;;;;;;;;;;5099916;28;20208;-59
2022/01/27 08:54:21;;;;;;;48.88;21.35;;;;;;;;;;5099542;28;20444;-58
2022/01/27 08:56:47;;;;;;;94.00;23.77;;;;;;;;;;5099353;28;20215;-60
2022/01/27 08:59:16;;;;;;;42.60;20.75;;;;;;;;;;5098796;28;20207;-59
2022/01/27 09:01:42;;;;;;;42.17;21.50;;;;;;;;;;5098541;28;20230;-59
2022/01/27 09:04:09;;;;;;;43.38;20.95;;;;;;;;;;5099542;28;20249;-59
2022/01/27 09:06:35;;;;;;;49.10;21.73;;;;;;;;;;5098902;28;20219;-58
2022/01/27 09:09:04;;;;;;;47.53;21.48;;;;;;;;;;5098265;28;20518;-58
2022/01/27 09:11:31;;;;;;;47.60;21.40;;;;;;;;;;5099381;28;20572;-59
2022/01/27 09:13:57;;;;;;;43.70;21.17;;;;;;;;;;5098850;28;20515;-58
2022/01/27 09:16:26;;;;;;;79.88;24.58;;;;;;;;;;5099063;28;20208;-59
2022/01/27 09:18:53;;;;;;;47.83;22.67;;;;;;;;;;5098683;28;20578;-59
2022/01/27 09:21:24;;;;;;;130.40;27.08;;;;;;;;;;5098611;28;20224;-60
2022/01/27 09:23:51;;;;;;;58.75;21.45;;;;;;;;;;5098848;28;20398;-60
2022/01/27 09:26:40;;;;;;;54.80;23.20;;;;;;;;;;5098479;28;20207;-60
2022/01/27 09:29:07;;;;;;;42.75;20.23;;;;;;;;;;5098267;28;20225;-58
2022/01/27 09:31:33;;;;;;;45.50;22.02;;;;;;;;;;5098802;28;20281;-58
2022/01/27 09:34:00;;;;;;;51.03;22.00;;;;;;;;;;5099097;28;20200;-57
2022/01/27 09:36:26;;;;;;;45.05;23.60;;;;;;;;;;5098150;28;20575;-58
2022/01/27 09:38:53;;;;;;;44.10;21.42;;;;;;;;;;5098663;28;20207;-59
2022/01/27 09:41:22;;;;;;;44.38;21.55;;;;;;;;;;5098655;28;20216;-59
2022/01/27 09:43:51;;;;;;;35.50;19.48;;;;;;;;;;5099310;28;20413;-59
2022/01/27 09:46:19;;;;;;;38.95;18.38;;;;;;;;;;5098389;28;20447;-59
2022/01/27 09:48:48;;;;;;;37.40;18.70;;;;;;;;;;5098480;28;20212;-58
2022/01/27 09:51:26;;;;;;;38.22;17.92;;;;;;;;;;5098668;28;20204;-60
2022/01/27 09:53:54;;;;;;;39.70;19.85;;;;;;;;;;5098461;28;20249;-60
2022/01/27 09:56:22;;;;;;;43.80;20.73;;;;;;;;;;5098454;28;20215;-59
2022/01/27 09:58:49;;;;;;;39.45;19.33;;;;;;;;;;5098279;28;20207;-59
2022/01/27 10:01:16;;;;;;;41.20;20.63;;;;;;;;;;5097523;28;20228;-57
2022/01/27 10:03:52;;;;;;;37.65;19.45;;;;;;;;;;5098700;28;20207;-59
2022/01/27 10:06:19;;;;;;;38.50;19.75;;;;;;;;;;5098408;28;20215;-60
2022/01/27 10:08:45;;;;;;;38.63;18.92;;;;;;;;;;5098620;28;20561;-60
2022/01/27 10:11:16;;;;;;;38.80;20.17;;;;;;;;;;5098092;28;20514;-59
2022/01/27 10:13:45;;;;;;;39.33;19.15;;;;;;;;;;5098439;28;20253;-60
2022/01/27 10:16:26;;;;;;;36.70;18.20;;;;;;;;;;5098084;28;20648;-60
2022/01/27 10:19:03;;;;;;;37.00;18.48;;;;;;;;;;5098115;28;20576;-60
2022/01/27 10:21:31;;;;;;;33.58;18.08;;;;;;;;;;5097894;28;20231;-60
2022/01/27 10:23:57;;;;;;;38.47;18.48;;;;;;;;;;5097454;28;20230;-59
2022/01/27 10:26:30;;;;;;;32.47;17.75;;;;;;;;;;5097198;28;20289;-59
2022/01/27 10:29:04;;;;;;;25.35;15.65;;;;;;;;;;5097441;28;20195;-60
2022/01/27 10:31:31;;;;;;;28.48;16.33;;;;;;;;;;5097704;28;20599;-60
2022/01/27 10:34:00;;;;;;;30.48;17.38;;;;;;;;;;5097653;28;20208;-59
2022/01/27 10:36:29;;;;;;;31.95;17.10;;;;;;;;;;5097825;28;20558;-58
2022/01/27 10:38:57;;;;;;;30.58;16.52;;;;;;;;;;5097119;28;20397;-60
2022/01/27 10:41:24;;;;;;;29.92;16.15;;;;;;;;;;5097274;28;20230;-59
2022/01/27 10:43:50;;;;;;;31.17;17.30;;;;;;;;;;5097986;28;20462;-59
2022/01/27 10:46:24;;;;;;;28.52;15.40;;;;;;;;;;5097218;28;20204;-59
2022/01/27 10:48:56;;;;;;;28.55;16.50;;;;;;;;;;5095391;28;20211;-59
2022/01/27 10:51:25;;;;;;;31.48;16.65;;;;;;;;;;5097232;28;20305;-60
2022/01/27 10:53:57;;;;;;;32.10;17.00;;;;;;;;;;5097528;28;20207;-60
2022/01/27 10:56:25;;;;;;;33.95;17.80;;;;;;;;;;5097343;28;20403;-61
2022/01/27 10:58:51;;;;;;;33.80;18.23;;;;;;;;;;5097445;28;20207;-60
2022/01/27 11:01:26;;;;;;;33.92;18.30;;;;;;;;;;5096547;28;20252;-58
2022/01/27 11:03:53;;;;;;;33.63;18.52;;;;;;;;;;5097261;28;20207;-59
2022/01/27 11:06:20;;;;;;;33.05;17.77;;;;;;;;;;5097167;28;20228;-59
2022/01/27 11:08:47;;;;;;;34.05;18.77;;;;;;;;;;5096518;28;20245;-60
2022/01/27 11:11:14;;;;;;;32.42;17.70;;;;;;;;;;5096802;28;20218;-63
2022/01/27 11:13:43;;;;;;;35.92;19.58;;;;;;;;;;5097244;28;20275;-59
2022/01/27 11:16:13;;;;;;;36.50;20.05;;;;;;;;;;5090800;28;20240;-59
2022/01/27 11:18:43;;;;;;;35.35;20.10;;;;;;;;;;5088603;28;20222;-61
2022/01/27 11:21:23;;;;;;;34.17;19.73;;;;;;;;;;5096242;28;20414;-60
2022/01/27 11:24:04;;;;;;;33.45;19.58;;;;;;;;;;5090203;28;20221;-59
2022/01/27 11:26:31;;;;;;;33.15;18.40;;;;;;;;;;5096471;28;20230;-59
2022/01/27 11:28:58;;;;;;;31.85;19.33;;;;;;;;;;5096040;28;20249;-61
2022/01/27 11:31:38;;;;;;;34.92;19.40;;;;;;;;;;5095508;28;20227;-59
2022/01/27 11:34:08;;;;;;;34.00;19.67;;;;;;;;;;5096585;28;20609;-61
2022/01/27 11:36:38;;;;;;;36.90;19.58;;;;;;;;;;5096110;28;20540;-61
2022/01/27 11:39:08;;;;;;;37.40;19.95;;;;;;;;;;5096566;28;20475;-59
2022/01/27 11:41:36;;;;;;;33.38;18.77;;;;;;;;;;5095381;28;20287;-63
2022/01/27 11:44:37;;;;;;;35.85;19.70;;;;;;;;;;5096513;28;20204;-61
2022/01/27 11:47:18;;;;;;;35.65;19.08;;;;;;;;;;5033180;28;20205;-60
2022/01/27 11:49:55;;;;;;;33.83;19.17;;;;;;;;;;5032399;28;20229;-61
2022/01/27 11:52:23;;;;;;;33.72;17.90;;;;;;;;;;5071213;28;20207;-60
2022/01/27 11:54:50;;;;;;;29.45;17.33;;;;;;;;;;5096425;28;20219;-60
2022/01/27 11:57:35;;;;;;;31.55;18.48;;;;;;;;;;5096140;28;20940;-60
2022/01/27 12:00:08;;;;;;;35.53;19.63;;;;;;;;;;5096018;28;20264;-62
2022/01/27 12:02:50;;;;;;;31.42;17.67;;;;;;;;;;5095946;28;20235;-61
2022/01/27 12:05:18;;;;;;;31.50;17.92;;;;;;;;;;5095184;28;20380;-62
2022/01/27 12:07:59;;;;;;;32.70;17.17;;;;;;;;;;5096489;28;20199;-61
2022/01/27 12:10:41;;;;;;;30.73;18.15;;;;;;;;;;5095943;28;20207;-60
2022/01/27 12:13:23;;;;;;;39.85;21.27;;;;;;;;;;5098140;28;20230;-61
2022/01/27 12:16:36;;;;;;;32.90;18.40;;;;;;;;;;5090965;28;20215;-60
2022/01/27 12:19:04;;;;;;;34.75;18.42;;;;;;;;;;5008481;28;20458;-60
2022/01/27 12:21:34;;;;;;;28.60;16.85;;;;;;;;;;5085407;28;20207;-61
2022/01/27 12:24:23;;;;;;;33.35;18.92;;;;;;;;;;5095259;28;20215;-61
2022/01/27 12:26:51;;;;;;;26.20;16.25;;;;;;;;;;5088456;28;20218;-61
2022/01/27 12:29:28;;;;;;;29.30;18.40;;;;;;;;;;5094225;28;20204;-61
2022/01/27 12:31:55;;;;;;;32.75;18.55;;;;;;;;;;5089560;28;20432;-58
2022/01/27 12:34:21;;;;;;;33.38;18.38;;;;;;;;;;5093016;28;20273;-60
2022/01/27 12:36:57;;;;;;;30.30;17.20;;;;;;;;;;5095752;28;20269;-61
2022/01/27 12:39:24;;;;;;;29.25;16.65;;;;;;;;;;5095160;28;20208;-61
2022/01/27 12:41:50;;;;;;;31.75;17.15;;;;;;;;;;5095320;28;20220;-59
2022/01/27 12:44:17;;;;;;;29.35;16.75;;;;;;;;;;5095290;28;20413;-60
2022/01/27 12:46:58;;;;;;;29.02;16.95;;;;;;;;;;5094487;28;20437;-59
2022/01/27 12:49:40;;;;;;;31.98;17.13;;;;;;;;;;5097970;28;20245;-58
2022/01/27 12:52:09;;;;;;;30.90;16.50;;;;;;;;;;5098597;28;20211;-59
2022/01/27 12:54:36;;;;;;;29.25;17.10;;;;;;;;;;5098367;28;20402;-60
2022/01/27 12:57:02;;;;;;;29.42;16.98;;;;;;;;;;5098853;28;20409;-59
2022/01/27 12:59:33;;;;;;;31.23;17.33;;;;;;;;;;5099175;28;20379;-60
2022/01/27 13:02:00;;;;;;;32.50;16.50;;;;;;;;;;5097961;28;20247;-61
2022/01/27 13:04:27;;;;;;;30.00;17.60;;;;;;;;;;5098453;28;20556;-62
2022/01/27 13:06:54;;;;;;;26.75;15.65;;;;;;;;;;5097938;28;20230;-62
2022/01/27 13:09:22;;;;;;;28.85;16.35;;;;;;;;;;5099089;28;20214;-61
2022/01/27 13:11:51;;;;;;;33.03;17.73;;;;;;;;;;5098722;28;20404;-61
2022/01/27 13:14:17;;;;;;;30.63;17.35;;;;;;;;;;5099022;28;20223;-60
2022/01/27 13:16:48;;;;;;;26.60;17.05;;;;;;;;;;5098613;28;20208;-59
2022/01/27 13:19:22;;;;;;;27.73;16.02;;;;;;;;;;5098415;28;20523;-60
2022/01/27 13:21:59;;;;;;;45.22;21.55;;;;;;;;;;5098224;28;20493;-60
2022/01/27 13:24:28;;;;;;;28.90;17.55;;;;;;;;;;5099038;28;20207;-58
2022/01/27 13:27:03;;;;;;;27.15;16.05;;;;;;;;;;5098355;28;20235;-61
2022/01/27 13:29:30;;;;;;;31.15;17.27;;;;;;;;;;5098586;28;20662;-60
2022/01/27 13:31:57;;;;;;;30.83;17.90;;;;;;;;;;5098082;28;20224;-60
2022/01/27 13:34:23;;;;;;;31.83;16.20;;;;;;;;;;5098960;28;20409;-59
2022/01/27 13:36:56;;;;;;;31.85;18.23;;;;;;;;;;5098089;28;20216;-60
2022/01/27 13:39:36;;;;;;;26.08;15.38;;;;;;;;;;5089900;28;20269;-59
2022/01/27 13:42:08;;;;;;;39.55;19.95;;;;;;;;;;5098252;28;20235;-60
2022/01/27 13:44:34;;;;;;;38.53;21.17;;;;;;;;;;5098372;28;20211;-60
2022/01/27 13:47:03;;;;;;;28.13;15.88;;;;;;;;;;5097910;28;20815;-60
2022/01/27 13:49:32;;;;;;;39.03;19.00;;;;;;;;;;5097577;28;20200;-60
2022/01/27 13:51:59;;;;;;;32.25;18.63;;;;;;;;;;5097575;28;20230;-60
2022/01/27 13:54:34;;;;;;;50.50;22.77;;;;;;;;;;5098330;28;20203;-58
2022/01/27 13:57:04;;;;;;;50.60;24.40;;;;;;;;;;5083550;28;20219;-60
2022/01/27 13:59:42;;;;;;;30.38;17.83;;;;;;;;;;5096317;28;20214;-60
2022/01/27 14:02:16;;;;;;;26.40;14.63;;;;;;;;;;5096919;28;20261;-60
2022/01/27 14:04:43;;;;;;;22.17;14.73;;;;;;;;;;5097818;28;20245;-60
2022/01/27 14:07:10;;;;;;;26.73;14.45;;;;;;;;;;5098037;28;20211;-61
2022/01/27 14:09:41;;;;;;;26.00;14.65;;;;;;;;;;5097507;28;20208;-60
2022/01/27 14:12:08;;;;;;;24.02;14.02;;;;;;;;;;5098109;28;20211;-59
2022/01/27 14:14:48;;;;;;;25.90;13.77;;;;;;;;;;5098061;28;20212;-58
2022/01/27 14:17:18;;;;;;;22.27;12.77;;;;;;;;;;5097843;28;20280;-61
2022/01/27 14:19:45;;;;;;;23.80;13.85;;;;;;;;;;5096908;28;20345;-60
2022/01/27 14:22:15;;;;;;;21.58;12.20;;;;;;;;;;5097909;28;20219;-61
2022/01/27 14:24:56;;;;;;;18.52;11.68;;;;;;;;;;5092285;28;20208;-62
2022/01/27 14:27:31;;;;;;;16.80;10.95;;;;;;;;;;5095472;28;20466;-62
2022/01/27 14:29:58;;;;;;;20.25;11.18;;;;;;;;;;5096719;28;20222;-61
2022/01/27 14:32:25;;;;;;;20.52;10.57;;;;;;;;;;5097427;28;20215;-58
2022/01/27 14:34:51;;;;;;;17.85;11.02;;;;;;;;;;5097538;28;20258;-61
2022/01/27 14:37:18;;;;;;;16.90;10.52;;;;;;;;;;5097276;28;20211;-61
2022/01/27 14:39:46;;;;;;;16.77;10.45;;;;;;;;;;5096963;28;20203;-62